Hilger, Montana
Current Conditions -  °F | °C
As of 5:54 AM on Wednesday 26 Nov 2014 (Local Time) from KLWT Reporting Station
Light Snow Light Snow  
Wind Chill: -3°   Ceiling: 4100
Heat Index: -3°   Visibility: 4mi
Dew Point: -4°   Wind: 0mph
Humidity: 89%   Direction: NA
Pressure: 30.12"   Gusts: NA
Location:  47.25°N, 109.36°W
Report Text: KLWT 261254Z AUTO 00000KT 4SM -SN BR OVC041 M03/M04 A3012 RMK AO2 SLP235 P0001 T10281044
Loading
Personal Weather Stations






























Interactive Weather Map New forecast layout! Learn more

10-Day Weather Forecast

Advertisements
Track Severe Weather on mobile